createdAt,value
2023-04-29T00:01:26.452Z,0.60
2023-04-29T00:03:54.184Z,0.60
2023-04-29T00:06:22.444Z,0.50
2023-04-29T00:08:50.068Z,0.75
2023-04-29T00:11:17.248Z,0.70
2023-04-29T00:13:44.440Z,0.70
2023-04-29T00:16:11.960Z,0.98
2023-04-29T00:18:39.106Z,0.77
2023-04-29T00:21:06.399Z,0.50
2023-04-29T00:23:36.631Z,0.50
2023-04-29T00:26:03.772Z,0.70
2023-04-29T00:28:30.908Z,0.43
2023-04-29T00:30:58.135Z,0.52
2023-04-29T00:33:25.498Z,0.55
2023-04-29T00:35:52.851Z,0.68
2023-04-29T00:38:21.160Z,0.65
2023-04-29T00:40:48.503Z,0.60
2023-04-29T00:43:15.674Z,0.70
2023-04-29T00:45:44.251Z,0.70
2023-04-29T00:48:11.420Z,0.73
2023-04-29T00:50:38.595Z,0.70
2023-04-29T00:53:05.966Z,0.60
2023-04-29T00:55:34.185Z,0.65
2023-04-29T00:58:02.759Z,0.52
2023-04-29T01:00:30.244Z,0.77
2023-04-29T01:02:57.929Z,0.75
2023-04-29T01:05:25.284Z,0.90
2023-04-29T01:07:52.429Z,0.88
2023-04-29T01:10:22.706Z,0.47
2023-04-29T01:13:13.927Z,0.75
2023-04-29T01:16:07.564Z,0.60
2023-04-29T01:18:37.469Z,0.90
2023-04-29T01:21:05.559Z,0.77
2023-04-29T01:23:32.666Z,0.75
2023-04-29T01:26:00.075Z,0.80
2023-04-29T01:28:27.337Z,0.70
2023-04-29T01:30:57.561Z,0.85
2023-04-29T01:33:41.138Z,0.75
2023-04-29T01:36:08.779Z,0.60
2023-04-29T01:38:35.883Z,1.00
2023-04-29T01:41:11.399Z,0.98
2023-04-29T01:43:39.595Z,1.02
2023-04-29T01:46:11.800Z,0.85
2023-04-29T01:48:39.339Z,0.88
2023-04-29T01:51:07.211Z,0.90
2023-04-29T01:53:34.438Z,1.00
2023-04-29T01:56:01.578Z,0.90
2023-04-29T01:58:29.518Z,0.90
2023-04-29T02:00:57.049Z,1.00
2023-04-29T02:03:24.421Z,1.13
2023-04-29T02:05:51.722Z,1.10
2023-04-29T02:08:19.049Z,0.90
2023-04-29T02:10:52.889Z,0.82
2023-04-29T02:13:20.063Z,0.98
2023-04-29T02:15:47.255Z,0.82
2023-04-29T02:18:14.466Z,0.88
2023-04-29T02:20:41.748Z,1.25
2023-04-29T02:23:09.076Z,1.00
2023-04-29T02:25:36.413Z,0.93
2023-04-29T02:28:03.551Z,1.00
2023-04-29T02:30:30.822Z,1.13
2023-04-29T02:32:57.938Z,1.15
2023-04-29T02:35:25.139Z,0.95
2023-04-29T02:37:52.274Z,1.20
2023-04-29T02:40:19.818Z,0.90
2023-04-29T02:42:46.906Z,1.20
2023-04-29T02:45:14.097Z,1.20
2023-04-29T02:47:41.324Z,0.93
2023-04-29T02:50:09.063Z,0.90
2023-04-29T02:52:36.670Z,1.30
2023-04-29T02:55:03.806Z,1.13
2023-04-29T02:57:32.130Z,1.13
2023-04-29T02:59:59.227Z,0.90
2023-04-29T03:02:26.418Z,1.08
2023-04-29T03:04:53.866Z,0.90
2023-04-29T03:07:21.023Z,1.40
2023-04-29T03:09:48.194Z,1.52
2023-04-29T03:12:16.775Z,1.25
2023-04-29T03:14:43.927Z,1.20
2023-04-29T03:17:11.897Z,1.27
2023-04-29T03:19:39.058Z,1.60
2023-04-29T03:22:08.249Z,1.15
2023-04-29T03:24:35.709Z,1.30
2023-04-29T03:27:02.828Z,1.10
2023-04-29T03:29:29.933Z,1.30
2023-04-29T03:31:57.400Z,1.10
2023-04-29T03:34:24.925Z,1.35
2023-04-29T03:36:52.236Z,1.05
2023-04-29T03:39:19.351Z,1.50
2023-04-29T03:41:48.007Z,1.50
2023-04-29T03:44:15.298Z,1.33
2023-04-29T03:46:42.529Z,1.30
2023-04-29T03:49:09.821Z,1.40
2023-04-29T03:51:37.204Z,1.40
2023-04-29T03:54:04.327Z,1.45
2023-04-29T03:56:31.451Z,1.30
2023-04-29T03:58:58.577Z,1.30
2023-04-29T04:01:25.993Z,1.58
2023-04-29T04:03:53.255Z,1.52
2023-04-29T04:06:21.445Z,1.40
2023-04-29T04:08:48.621Z,1.63
2023-04-29T04:11:15.753Z,1.58
2023-04-29T04:13:46.289Z,2.05
2023-04-29T04:16:13.649Z,1.35
2023-04-29T04:18:40.897Z,1.75
2023-04-29T04:21:11.593Z,1.60
2023-04-29T04:23:41.087Z,1.52
2023-04-29T04:26:08.618Z,1.50
2023-04-29T04:28:35.860Z,1.60
2023-04-29T04:31:03.896Z,1.35
2023-04-29T04:33:31.229Z,1.60
2023-04-29T04:35:58.357Z,1.70
2023-04-29T04:38:26.496Z,1.90
2023-04-29T04:40:53.603Z,1.65
2023-04-29T04:43:21.150Z,1.40
2023-04-29T04:45:48.293Z,1.67
2023-04-29T04:48:15.413Z,1.70
2023-04-29T04:50:43.353Z,1.65
2023-04-29T04:53:10.558Z,1.60
2023-04-29T04:55:37.868Z,1.70
2023-04-29T04:58:04.994Z,1.85
2023-04-29T05:00:32.115Z,1.60
2023-04-29T05:02:59.481Z,1.50
2023-04-29T05:05:26.834Z,1.80
2023-04-29T05:07:53.923Z,1.63
2023-04-29T05:10:21.036Z,2.00
2023-04-29T05:12:48.174Z,1.98
2023-04-29T05:15:16.740Z,1.88
2023-04-29T05:17:43.924Z,1.88
2023-04-29T05:20:11.360Z,2.10
2023-04-29T05:22:38.575Z,2.20
2023-04-29T05:25:06.067Z,1.80
2023-04-29T05:27:33.215Z,1.70
2023-04-29T05:30:01.351Z,2.05
2023-04-29T05:32:28.613Z,1.77
2023-04-29T05:34:55.774Z,1.77
2023-04-29T05:37:22.881Z,1.80
2023-04-29T05:39:50.103Z,1.60
2023-04-29T05:42:17.348Z,1.70
2023-04-29T05:44:44.501Z,1.73
2023-04-29T05:47:11.652Z,1.70
2023-04-29T05:49:39.816Z,1.60
2023-04-29T05:52:07.084Z,1.30
2023-04-29T05:54:34.399Z,1.35
2023-04-29T05:57:05.486Z,1.50
2023-04-29T05:59:32.975Z,1.50
2023-04-29T06:02:00.920Z,1.60
2023-04-29T06:04:28.394Z,1.35
2023-04-29T06:06:57.413Z,1.40
2023-04-29T06:09:28.139Z,1.25
2023-04-29T06:11:56.135Z,1.63
2023-04-29T06:14:23.368Z,1.65
2023-04-29T06:16:50.616Z,1.67
2023-04-29T06:19:17.815Z,1.40
2023-04-29T06:21:44.929Z,1.60
2023-04-29T06:24:12.316Z,1.75
2023-04-29T06:26:39.394Z,1.73
2023-04-29T06:29:06.544Z,1.85
2023-04-29T06:31:33.901Z,1.52
2023-04-29T06:34:01.046Z,1.63
2023-04-29T06:36:28.447Z,1.58
2023-04-29T06:38:55.706Z,1.83
2023-04-29T06:41:23.682Z,1.50
2023-04-29T06:43:50.816Z,1.83
2023-04-29T06:46:18.036Z,1.90
2023-04-29T06:48:45.923Z,2.17
2023-04-29T06:51:13.324Z,1.90
2023-04-29T06:53:40.622Z,2.13
2023-04-29T06:56:08.005Z,2.30
2023-04-29T06:58:35.140Z,2.17
2023-04-29T07:01:04.099Z,1.98
2023-04-29T07:03:31.447Z,2.00
2023-04-29T07:05:58.638Z,2.50
2023-04-29T07:08:25.801Z,2.67
2023-04-29T07:10:56.620Z,2.70
2023-04-29T07:13:23.826Z,2.63
2023-04-29T07:15:50.988Z,2.40
2023-04-29T07:18:18.187Z,2.30
2023-04-29T07:20:46.050Z,2.03
2023-04-29T07:23:13.281Z,2.20
2023-04-29T07:25:40.907Z,1.60
2023-04-29T07:28:09.170Z,2.10
2023-04-29T07:30:36.486Z,2.30
2023-04-29T07:33:04.499Z,1.95
2023-04-29T07:35:31.796Z,2.10
2023-04-29T07:37:58.991Z,1.98
2023-04-29T07:40:26.654Z,2.53
2023-04-29T07:42:53.885Z,2.42
2023-04-29T07:45:21.038Z,2.35
2023-04-29T07:47:48.316Z,2.33
2023-04-29T07:50:16.218Z,2.53
2023-04-29T07:52:43.310Z,2.60
2023-04-29T07:55:10.426Z,2.70
2023-04-29T07:57:37.567Z,2.30
2023-04-29T08:00:04.907Z,2.80
2023-04-29T08:02:32.665Z,2.30
2023-04-29T08:05:01.121Z,2.58
2023-04-29T08:07:28.726Z,2.75
2023-04-29T08:09:55.971Z,2.17
2023-04-29T08:12:23.143Z,2.60
2023-04-29T08:14:50.567Z,2.50
2023-04-29T08:17:17.793Z,2.20
2023-04-29T08:19:44.975Z,2.55
2023-04-29T08:22:12.326Z,2.10
2023-04-29T08:24:39.578Z,1.92
2023-04-29T08:27:06.678Z,2.60
2023-04-29T08:29:34.363Z,2.15
2023-04-29T08:32:01.852Z,2.50
2023-04-29T08:34:29.149Z,2.28
2023-04-29T08:36:57.695Z,2.92
2023-04-29T08:39:25.655Z,2.10
2023-04-29T08:41:54.085Z,1.77
2023-04-29T08:44:21.586Z,1.88
2023-04-29T08:46:48.936Z,1.88
2023-04-29T08:49:16.200Z,2.03
2023-04-29T08:51:43.337Z,1.98
2023-04-29T08:54:11.821Z,1.63
2023-04-29T08:56:39.673Z,2.00
2023-04-29T08:59:08.285Z,1.63
2023-04-29T09:01:37.406Z,1.88
2023-04-29T09:04:16.437Z,1.65
2023-04-29T09:06:43.840Z,1.60
2023-04-29T09:09:11.796Z,1.67
2023-04-29T09:11:38.975Z,1.50
2023-04-29T09:14:06.507Z,1.45
2023-04-29T09:16:33.763Z,1.63
2023-04-29T09:19:00.880Z,1.70
2023-04-29T09:21:28.695Z,1.48
2023-04-29T09:23:56.526Z,1.65
2023-04-29T09:26:24.263Z,1.92
2023-04-29T09:29:07.904Z,1.67
2023-04-29T09:31:35.102Z,1.52
2023-04-29T09:34:02.243Z,1.40
2023-04-29T09:36:45.988Z,1.33
2023-04-29T09:39:15.234Z,1.17
2023-04-29T09:41:43.945Z,1.33
2023-04-29T09:44:11.339Z,1.60
2023-04-29T09:46:38.685Z,1.30
2023-04-29T09:49:23.837Z,1.20
2023-04-29T09:54:22.161Z,1.50
2023-04-29T09:56:50.668Z,1.30
2023-04-29T09:59:18.096Z,1.45
2023-04-29T10:01:45.396Z,1.33
2023-04-29T10:04:14.515Z,1.42
2023-04-29T10:06:42.472Z,1.08
2023-04-29T10:09:12.327Z,1.27
2023-04-29T10:11:40.886Z,1.20
2023-04-29T10:14:08.532Z,1.42
2023-04-29T10:16:41.925Z,1.20
2023-04-29T10:19:13.109Z,1.42
2023-04-29T10:21:40.282Z,1.35
2023-04-29T10:24:08.957Z,1.48
2023-04-29T10:26:39.582Z,2.03
2023-04-29T10:29:08.361Z,1.80
2023-04-29T10:31:36.148Z,2.08
2023-04-29T10:34:03.417Z,1.98
2023-04-29T10:36:32.057Z,2.13
2023-04-29T10:39:00.170Z,2.28
2023-04-29T10:41:28.799Z,2.50
2023-04-29T10:43:56.363Z,2.00
2023-04-29T10:46:24.518Z,2.35
2023-04-29T10:48:55.439Z,1.90
2023-04-29T10:51:36.012Z,2.10
2023-04-29T10:54:04.556Z,1.73
2023-04-29T10:56:38.857Z,1.73
2023-04-29T10:59:06.163Z,1.70
2023-04-29T11:01:42.519Z,1.60
2023-04-29T11:04:11.049Z,1.38
2023-04-29T11:06:39.779Z,1.63
2023-04-29T11:09:14.297Z,1.85
2023-04-29T11:11:54.423Z,1.83
2023-04-29T11:14:25.544Z,2.03
2023-04-29T11:16:53.848Z,2.10
2023-04-29T11:19:21.456Z,1.77
2023-04-29T11:21:48.852Z,1.52
2023-04-29T11:24:17.445Z,1.52
2023-04-29T11:26:44.823Z,1.50
2023-04-29T11:29:12.347Z,1.58
2023-04-29T11:31:39.941Z,1.50
2023-04-29T11:34:07.486Z,1.60
2023-04-29T11:36:35.224Z,1.85
2023-04-29T11:39:03.761Z,1.60
2023-04-29T11:41:31.696Z,1.60
2023-04-29T11:43:59.926Z,1.45
2023-04-29T11:46:28.910Z,1.33
2023-04-29T11:48:58.898Z,1.60
2023-04-29T11:51:26.881Z,1.20
2023-04-29T11:53:54.080Z,1.40
2023-04-29T11:56:25.555Z,1.02
2023-04-29T11:58:56.970Z,1.30
2023-04-29T12:01:24.208Z,1.50
2023-04-29T12:03:51.597Z,1.10
2023-04-29T12:06:18.899Z,1.20
2023-04-29T12:08:47.778Z,1.25
2023-04-29T12:11:14.898Z,1.30
2023-04-29T12:13:42.124Z,1.40
2023-04-29T12:16:09.506Z,1.30
2023-04-29T12:18:36.749Z,1.20
2023-04-29T12:21:03.875Z,1.20
2023-04-29T12:23:31.437Z,1.40
2023-04-29T12:26:00.121Z,0.95
2023-04-29T12:28:28.020Z,1.30
2023-04-29T12:30:55.569Z,1.35
2023-04-29T12:33:23.606Z,1.30
2023-04-29T12:35:54.826Z,1.45
2023-04-29T12:38:22.566Z,1.35
2023-04-29T12:40:50.982Z,1.23
2023-04-29T12:43:18.916Z,1.42
2023-04-29T12:45:46.256Z,1.05
2023-04-29T12:48:25.518Z,1.30
2023-04-29T12:50:58.542Z,1.10
2023-04-29T12:53:26.124Z,1.10
2023-04-29T12:55:53.600Z,1.17
2023-04-29T12:58:21.026Z,1.10
2023-04-29T13:00:48.181Z,1.30
2023-04-29T13:03:15.592Z,1.30
2023-04-29T13:05:42.895Z,1.30
2023-04-29T13:08:10.005Z,1.35
2023-04-29T13:10:37.118Z,1.27
2023-04-29T13:13:04.239Z,1.10
2023-04-29T13:15:33.224Z,1.45
2023-04-29T13:18:00.518Z,0.90
2023-04-29T13:20:27.706Z,1.27
2023-04-29T13:22:54.836Z,1.30
2023-04-29T13:25:21.973Z,1.23
2023-04-29T13:27:49.742Z,1.00
2023-04-29T13:30:16.863Z,0.95
2023-04-29T13:32:49.484Z,1.02
2023-04-29T13:35:20.726Z,0.80
2023-04-29T13:37:48.582Z,0.70
2023-04-29T13:40:20.507Z,1.60
2023-04-29T13:42:50.558Z,0.82
2023-04-29T13:45:23.940Z,1.17
2023-04-29T13:50:57.300Z,1.08
2023-04-29T14:01:10.182Z,0.63
2023-04-29T14:03:26.924Z,0.90
2023-04-29T14:05:54.321Z,1.77
2023-04-29T14:08:21.489Z,1.25
2023-04-29T14:10:48.588Z,1.77
2023-04-29T14:13:16.036Z,1.33
2023-04-29T14:15:43.202Z,1.05
2023-04-29T14:18:11.671Z,1.00
2023-04-29T14:20:39.297Z,1.10
2023-04-29T14:23:06.576Z,1.00
2023-04-29T14:25:34.080Z,1.73
2023-04-29T14:28:01.593Z,1.25
2023-04-29T14:30:28.707Z,1.55
2023-04-29T14:32:56.257Z,1.20
2023-04-29T14:35:23.424Z,0.90
2023-04-29T14:37:50.549Z,1.10
2023-04-29T14:40:17.675Z,1.13
2023-04-29T14:42:44.788Z,1.05
2023-04-29T14:45:12.501Z,1.00
2023-04-29T14:47:39.645Z,1.15
2023-04-29T14:50:07.238Z,0.85
2023-04-29T14:52:34.960Z,1.23
2023-04-29T14:55:02.193Z,1.00
2023-04-29T14:57:29.921Z,0.90
2023-04-29T14:59:57.289Z,1.00
2023-04-29T15:02:24.434Z,0.93
2023-04-29T15:04:51.561Z,0.80
2023-04-29T15:07:18.994Z,0.90
2023-04-29T15:09:46.609Z,1.13
2023-04-29T15:12:14.433Z,0.88
2023-04-29T15:14:41.529Z,1.00
2023-04-29T15:17:08.653Z,1.10
2023-04-29T15:19:36.110Z,1.13
2023-04-29T15:22:03.347Z,0.90
2023-04-29T15:24:30.626Z,1.30
2023-04-29T15:26:58.509Z,1.08
2023-04-29T15:29:25.628Z,1.23
2023-04-29T15:31:52.790Z,0.73
2023-04-29T15:34:19.952Z,1.48
2023-04-29T15:36:47.130Z,1.10
2023-04-29T15:39:14.891Z,1.00
2023-04-29T15:41:42.093Z,0.80
2023-04-29T15:44:09.536Z,1.02
2023-04-29T15:46:36.674Z,1.00
2023-04-29T15:49:05.935Z,1.55
2023-04-29T15:51:33.148Z,1.02
2023-04-29T15:54:00.222Z,0.93
2023-04-29T15:56:27.312Z,0.80
2023-04-29T15:58:54.545Z,1.35
2023-04-29T16:01:21.825Z,1.20
2023-04-29T16:03:49.047Z,1.85
2023-04-29T16:06:16.957Z,1.58
2023-04-29T16:08:44.097Z,1.20
2023-04-29T16:11:11.190Z,1.17
2023-04-29T16:13:38.678Z,1.23
2023-04-29T16:16:05.952Z,1.20
2023-04-29T16:18:33.735Z,1.30
2023-04-29T16:21:01.125Z,1.23
2023-04-29T16:23:28.249Z,1.27
2023-04-29T16:25:55.547Z,1.25
2023-04-29T16:28:22.699Z,1.20
2023-04-29T16:30:50.084Z,1.10
2023-04-29T16:33:17.181Z,1.20
2023-04-29T16:35:44.299Z,1.30
2023-04-29T16:38:12.933Z,1.10
2023-04-29T16:40:40.080Z,1.30
2023-04-29T16:43:07.182Z,1.13
2023-04-29T16:45:34.325Z,1.10
2023-04-29T16:48:01.795Z,1.25
2023-04-29T16:50:29.697Z,1.00
2023-04-29T16:52:57.083Z,1.48
2023-04-29T16:55:24.281Z,1.25
2023-04-29T16:57:51.461Z,1.58
2023-04-29T17:00:18.688Z,1.45
2023-04-29T17:02:56.978Z,1.60
2023-04-29T17:05:24.164Z,1.50
2023-04-29T17:07:51.790Z,1.55
2023-04-29T17:10:18.957Z,1.50
2023-04-29T17:12:46.070Z,1.92
2023-04-29T17:15:13.196Z,1.60
2023-04-29T17:17:40.511Z,1.42
2023-04-29T17:20:08.223Z,2.53
2023-04-29T17:22:35.646Z,1.70
2023-04-29T17:25:03.054Z,1.85
2023-04-29T17:27:30.688Z,1.48
2023-04-29T17:29:57.811Z,2.10
2023-04-29T17:32:28.714Z,1.65
2023-04-29T17:34:56.705Z,1.70
2023-04-29T17:37:25.677Z,1.88
2023-04-29T17:39:53.115Z,2.00
2023-04-29T17:42:23.778Z,2.60
2023-04-29T17:44:51.065Z,2.10
2023-04-29T17:47:19.337Z,1.80
2023-04-29T17:49:46.516Z,2.05
2023-04-29T17:52:15.643Z,2.25
2023-04-29T17:54:42.822Z,2.10
2023-04-29T17:57:10.060Z,2.58
2023-04-29T17:59:37.195Z,2.58
2023-04-29T18:02:04.380Z,3.08
2023-04-29T18:04:31.555Z,3.53
2023-04-29T18:06:58.686Z,3.33
2023-04-29T18:09:26.511Z,3.30
2023-04-29T18:11:53.679Z,3.05
2023-04-29T18:14:20.800Z,2.88
2023-04-29T18:16:47.968Z,2.80
2023-04-29T18:19:15.131Z,3.50
2023-04-29T18:21:42.224Z,3.55
2023-04-29T18:24:09.352Z,3.40
2023-04-29T18:26:36.440Z,3.63
2023-04-29T18:29:04.456Z,3.65
2023-04-29T18:31:31.660Z,3.78
2023-04-29T18:33:58.855Z,3.42
2023-04-29T18:36:26.497Z,3.65
2023-04-29T18:38:53.616Z,3.50
2023-04-29T18:41:20.737Z,3.63
2023-04-29T18:43:47.852Z,3.65
2023-04-29T18:46:15.400Z,3.50
2023-04-29T18:48:42.702Z,3.60
2023-04-29T18:51:09.873Z,4.30
2023-04-29T18:53:37.029Z,4.57
2023-04-29T18:56:04.395Z,4.43
2023-04-29T18:58:31.633Z,4.30
2023-04-29T19:00:59.766Z,4.57
2023-04-29T19:03:27.308Z,3.70
2023-04-29T19:05:54.406Z,4.50
2023-04-29T19:08:21.571Z,4.03
2023-04-29T19:10:48.754Z,4.00
2023-04-29T19:13:16.175Z,3.70
2023-04-29T19:15:43.694Z,4.57
2023-04-29T19:18:10.976Z,4.00
2023-04-29T19:20:38.115Z,4.38
2023-04-29T19:23:05.625Z,4.93
2023-04-29T19:25:32.779Z,3.83
2023-04-29T19:27:59.864Z,5.05
2023-04-29T19:30:27.219Z,4.65
2023-04-29T19:32:54.460Z,4.18
2023-04-29T19:35:21.733Z,4.00
2023-04-29T19:37:48.886Z,4.32
2023-04-29T19:40:16.362Z,4.28
2023-04-29T19:42:43.516Z,4.47
2023-04-29T19:45:12.503Z,4.43
2023-04-29T19:47:39.745Z,4.32
2023-04-29T19:50:07.042Z,3.90
2023-04-29T19:52:34.304Z,4.55
2023-04-29T19:55:01.461Z,4.22
2023-04-29T19:57:28.808Z,4.10
2023-04-29T19:59:56.054Z,4.05
2023-04-29T20:02:23.715Z,4.53
2023-04-29T20:04:51.248Z,3.80
2023-04-29T20:07:18.354Z,3.42
2023-04-29T20:09:45.848Z,3.60
2023-04-29T20:12:13.019Z,3.70
2023-04-29T20:14:40.237Z,4.95
2023-04-29T20:17:07.745Z,3.95
2023-04-29T20:19:34.893Z,4.03
2023-04-29T20:22:02.061Z,4.15
2023-04-29T20:24:29.255Z,4.32
2023-04-29T20:26:56.382Z,4.55
2023-04-29T20:29:23.576Z,4.03
2023-04-29T20:31:50.767Z,4.00
2023-04-29T20:34:17.880Z,4.55
2023-04-29T20:36:45.040Z,4.57
2023-04-29T20:39:12.167Z,3.72
2023-04-29T20:41:39.376Z,3.58
2023-04-29T20:44:06.479Z,3.90
2023-04-29T20:46:33.733Z,4.00
2023-04-29T20:49:01.439Z,3.72
2023-04-29T20:51:28.808Z,3.53
2023-04-29T20:53:55.975Z,3.28
2023-04-29T20:56:23.472Z,3.35
2023-04-29T20:58:50.807Z,3.20
2023-04-29T21:01:19.406Z,3.25
2023-04-29T21:03:46.710Z,4.20
2023-04-29T21:06:13.908Z,3.28
2023-04-29T21:08:41.074Z,3.95
2023-04-29T21:11:10.035Z,3.47
2023-04-29T21:13:37.376Z,3.60
2023-04-29T21:16:05.096Z,4.30
2023-04-29T21:18:32.264Z,4.00
2023-04-29T21:20:59.431Z,3.90
2023-04-29T21:23:26.546Z,3.85
2023-04-29T21:25:53.674Z,3.60
2023-04-29T21:28:20.845Z,4.10
2023-04-29T21:30:47.988Z,3.70
2023-04-29T21:33:15.140Z,4.07
2023-04-29T21:35:43.185Z,4.20
2023-04-29T21:38:10.392Z,3.75
2023-04-29T21:40:41.274Z,3.88
2023-04-29T21:43:08.736Z,3.95
2023-04-29T21:45:35.922Z,3.40
2023-04-29T21:48:11.859Z,3.05
2023-04-29T21:50:39.017Z,3.30
2023-04-29T21:53:06.228Z,3.70
2023-04-29T21:55:33.519Z,3.33
2023-04-29T21:58:00.646Z,3.55
2023-04-29T22:00:32.968Z,3.30
2023-04-29T22:03:04.000Z,3.17
2023-04-29T22:05:31.402Z,3.50
2023-04-29T22:08:00.097Z,3.50
2023-04-29T22:10:27.520Z,3.90
2023-04-29T22:12:54.717Z,3.75
2023-04-29T22:15:28.679Z,3.20
2023-04-29T22:17:57.369Z,4.40
2023-04-29T22:20:24.926Z,3.97
2023-04-29T22:22:52.442Z,4.10
2023-04-29T22:25:21.575Z,3.97
2023-04-29T22:27:49.137Z,3.30
2023-04-29T22:30:17.707Z,3.63
2023-04-29T22:32:45.240Z,4.00
2023-04-29T22:35:12.573Z,3.90
2023-04-29T22:37:39.752Z,3.58
2023-04-29T22:40:07.601Z,3.80
2023-04-29T22:42:34.766Z,3.63
2023-04-29T22:45:02.321Z,4.40
2023-04-29T22:47:29.616Z,4.00
2023-04-29T22:49:56.774Z,4.15
2023-04-29T22:52:25.756Z,3.70
2023-04-29T22:54:52.922Z,3.95
2023-04-29T22:57:20.153Z,3.83
2023-04-29T22:59:47.245Z,4.10
2023-04-29T23:02:14.401Z,4.38
2023-04-29T23:04:41.573Z,3.60
2023-04-29T23:07:08.746Z,4.22
2023-04-29T23:09:35.849Z,4.22
2023-04-29T23:12:03.194Z,4.22
2023-04-29T23:14:30.460Z,3.92
2023-04-29T23:16:57.593Z,3.90
2023-04-29T23:19:25.050Z,4.03
2023-04-29T23:21:52.224Z,4.43
2023-04-29T23:24:19.347Z,4.15
2023-04-29T23:26:46.419Z,4.28
2023-04-29T23:29:13.547Z,4.20
2023-04-29T23:31:40.682Z,5.07
2023-04-29T23:34:08.247Z,4.15
2023-04-29T23:36:35.425Z,4.05
2023-04-29T23:39:02.614Z,4.40
2023-04-29T23:41:29.709Z,4.18
2023-04-29T23:44:00.967Z,4.53
2023-04-29T23:46:28.148Z,4.57
2023-04-29T23:48:55.383Z,4.30
2023-04-29T23:51:22.495Z,4.40
2023-04-29T23:53:49.706Z,4.28
2023-04-29T23:56:16.809Z,4.30
2023-04-29T23:58:43.970Z,4.43
